Aviation Digital Data Service (ADDS)

Output produced by METARs form (1019 UTC 28 April 2015)
found at http://aviationweather.gov/adds/metars/
 
KMSS 280528Z 2806/2906 02007KT P6SM BKN080 
     FM281900 34008KT P6SM SCT050